| time (UTC) | temp F | wind direction | speed MPH | gust MPH | rain 1hr in | rain 24hr in | rain mn in | humidity % | barometer mb |
| 20260905024622 | 75 | 23 | 3.0 | 3.0 | 0.00 | 0.00 | 0.00 | 91 | |
| 20260905023622 | 75 | 68 | 0.0 | 0.0 | 0.00 | 0.00 | 0.00 | 90 | |
| 20260905022622 | 75 | 203 | 0.0 | 0.0 | 0.00 | 0.00 | 0.00 | 90 | |
| 20260905021622 | 75 | 203 | 2.0 | 2.0 | 0.00 | 0.00 | 0.00 | 90 | |
| 20260905020622 | 75 | 203 | 2.0 | 2.0 | 0.00 | 0.00 | 0.00 | 89 | |
| 20260905015622 | 75 | 180 | 0.0 | 0.0 | 0.00 | 0.00 | 0.00 | 89 | |
| 20260905014622 | 75 | 113 | 0.0 | 0.0 | 0.00 | 0.00 | 0.00 | 89 | |
| 20260905013622 | 75 | 135 | 0.0 | 0.0 | 0.00 | 0.00 | 0.00 | 89 | |
| 20260905012622 | 76 | 158 | 0.0 | 0.0 | 0.00 | 0.00 | 0.00 | 88 | |
| 20260905011622 | 76 | 135 | 0.0 | 0.0 | 0.00 | 0.00 | 0.00 | 88 | |
| 20260905010633 | 76 | 45 | 2.0 | 2.0 | 0.00 | 0.00 | 0.00 | 88 | |
| 20260905010622 | 76 | 23 | 2.0 | 2.0 | 0.00 | 0.00 | 0.00 | 88 | |
| 20260905005622 | 76 | 135 | 0.0 | 0.0 | 0.00 | 0.00 | 0.00 | 86 | |
| 20260905004622 | 76 | 180 | 0.0 | 0.0 | 0.00 | 0.00 | 0.00 | 86 | |
| 20260905003622 | 77 | 203 | 0.0 | 0.0 | 0.00 | 0.00 | 0.00 | 84 | |
| 20260905002621 | 77 | 158 | 0.0 | 0.0 | 0.00 | 0.00 | 0.00 | 84 | |
| 20260905001621 | 77 | 158 | 0.0 | 0.0 | 0.00 | 0.00 | 0.00 | 84 | |
| 20260905000621 | 78 | 180 | 0.0 | 0.0 | 0.00 | 0.00 | 0.00 | 83 | |
| 20260904235621 | 78 | 225 | 0.0 | 0.0 | 0.00 | 0.00 | 0.00 | 82 | |
| 20260904234621 | 79 | 158 | 0.0 | 0.0 | 0.00 | 0.00 | 0.00 | 81 | |
| 20260904233633 | 79 | 135 | 0.0 | 0.0 | 0.00 | 0.00 | 0.00 | 80 | |
| 20260904233621 | 79 | 158 | 0.0 | 0.0 | 0.00 | 0.00 | 0.00 | 80 | |
| 20260904232621 | 80 | 203 | 2.0 | 2.0 | 0.00 | 0.00 | 0.00 | 79 | |
| 20260904231621 | 81 | 158 | 2.0 | 2.0 | 0.00 | 0.00 | 0.00 | 78 | |
| 20260904230621 | 81 | 248 | 2.0 | 2.0 | 0.00 | 0.00 | 0.00 | 77 | |
| 20260904225621 | 82 | 225 | 2.0 | 2.0 | 0.00 | 0.00 | 0.00 | 77 | |
| 20260904224633 | 83 | 270 | 0.0 | 0.0 | 0.00 | 0.00 | 0.00 | 74 | |
| 20260904224621 | 83 | 225 | 0.0 | 0.0 | 0.00 | 0.00 | 0.00 | 74 | |
| 20260904223621 | 83 | 225 | 3.0 | 3.0 | 0.00 | 0.00 | 0.00 | 75 | |
| 20260904222632 | 83 | 225 | 2.0 | 2.0 | 0.00 | 0.00 | 0.00 | 74 | |
| 20260904222621 | 83 | 293 | 3.0 | 3.0 | 0.00 | 0.00 | 0.00 | 74 | |
| 20260904221621 | 84 | 248 | 4.0 | 4.0 | 0.00 | 0.00 | 0.00 | 72 | |
| 20260904220635 | 84 | 270 | 3.0 | 3.0 | 0.00 | 0.00 | 0.00 | 72 | |
| 20260904215633 | 83 | 225 | 1.0 | 1.0 | 0.00 | 0.00 | 0.00 | 74 | |
| 20260904215621 | 83 | 225 | 2.0 | 2.0 | 0.00 | 0.00 | 0.00 | 74 | |
| 20260904214621 | 83 | 248 | 3.0 | 3.0 | 0.00 | 0.00 | 0.00 | 72 | |
| 20260904213621 | 83 | 225 | 4.0 | 4.0 | 0.00 | 0.00 | 0.00 | 70 | |
| 20260904212621 | 84 | 225 | 5.0 | 5.0 | 0.00 | 0.00 | 0.00 | 69 | |
| 20260904211621 | 84 | 225 | 2.0 | 2.0 | 0.00 | 0.00 | 0.00 | 70 | |
| 20260904210621 | 84 | 248 | 5.0 | 5.0 | 0.00 | 0.00 | 0.00 | 68 | |
| 20260904205621 | 86 | 203 | 9.0 | 9.0 | 0.00 | 0.00 | 0.00 | 63 | |
| 20260904204632 | 88 | 270 | 6.0 | 6.0 | 0.00 | 0.00 | 0.00 | 63 | |
| 20260904204621 | 87 | 270 | 6.0 | 6.0 | 0.00 | 0.00 | 0.00 | 64 | |
| 20260904203621 | 87 | 0 | 3.0 | 3.0 | 0.00 | 0.00 | 0.00 | 63 | |
| 20260904202634 | 86 | 293 | 6.0 | 6.0 | 0.00 | 0.00 | 0.00 | 64 | |
| 20260904202622 | 86 | 270 | 6.0 | 6.0 | 0.00 | 0.00 | 0.00 | 64 | |
| 20260904201622 | 87 | 248 | 6.0 | 6.0 | 0.00 | 0.00 | 0.00 | 64 | |
| 20260904200633 | 87 | 293 | 4.0 | 4.0 | 0.00 | 0.00 | 0.00 | 65 | |
| 20260904200622 | 87 | 293 | 4.0 | 4.0 | 0.00 | 0.00 | 0.00 | 64 | |
| 20260904195633 | 88 | 270 | 6.0 | 6.0 | 0.00 | 0.00 | 0.00 | 63 | |
| 20260904195622 | 88 | 270 | 7.0 | 7.0 | 0.00 | 0.00 | 0.00 | 63 | |
| 20260904194622 | 89 | 248 | 6.0 | 6.0 | 0.00 | 0.00 | 0.00 | 59 | |
| 20260904193622 | 88 | 225 | 6.0 | 6.0 | 0.00 | 0.00 | 0.00 | 62 | |
| 20260904192622 | 88 | 270 | 9.0 | 9.0 | 0.00 | 0.00 | 0.00 | 63 | |
| 20260904191635 | 89 | 225 | 5.0 | 5.0 | 0.00 | 0.00 | 0.00 | 63 | |
| 20260904191622 | 89 | 225 | 4.0 | 4.0 | 0.00 | 0.00 | 0.00 | 64 | |
| 20260904190622 | 88 | 315 | 4.0 | 4.0 | 0.00 | 0.00 | 0.00 | 65 | |
| 20260904185634 | 89 | 315 | 4.0 | 4.0 | 0.00 | 0.00 | 0.00 | 64 | |
| 20260904185622 | 89 | 203 | 5.0 | 5.0 | 0.00 | 0.00 | 0.00 | 64 | |
| 20260904184634 | 87 | 315 | 3.0 | 3.0 | 0.00 | 0.00 | 0.00 | 65 | |
| 20260904184622 | 87 | 248 | 4.0 | 4.0 | 0.00 | 0.00 | 0.00 | 65 | |
| 20260904183622 | 86 | 248 | 3.0 | 3.0 | 0.00 | 0.00 | 0.00 | 66 | |
| 20260904182632 | 87 | 270 | 4.0 | 4.0 | 0.00 | 0.00 | 0.00 | 64 | |
| 20260904182622 | 87 | 270 | 5.0 | 5.0 | 0.00 | 0.00 | 0.00 | 64 | |
| 20260904181621 | 90 | 315 | 5.0 | 5.0 | 0.00 | 0.00 | 0.00 | 60 | |
| 20260904180634 | 90 | 270 | 7.0 | 7.0 | 0.00 | 0.00 | 0.00 | 61 | |
| 20260904180621 | 90 | 203 | 7.0 | 7.0 | 0.00 | 0.00 | 0.00 | 61 | |
| 20260904175621 | 89 | 293 | 5.0 | 5.0 | 0.00 | 0.00 | 0.00 | 62 | |
| 20260904174635 | 87 | 315 | 4.0 | 4.0 | 0.00 | 0.00 | 0.00 | 62 | |
| 20260904174621 | 88 | 315 | 3.0 | 3.0 | 0.00 | 0.00 | 0.00 | 61 | |
| 20260904173621 | 88 | 293 | 4.0 | 4.0 | 0.00 | 0.00 | 0.00 | 64 | |
| 20260904172621 | 86 | 270 | 6.0 | 6.0 | 0.00 | 0.00 | 0.00 | 66 | |
| 20260904171621 | 88 | 248 | 4.0 | 4.0 | 0.00 | 0.00 | 0.00 | 64 | |
| 20260904170621 | 87 | 315 | 4.0 | 4.0 | 0.00 | 0.00 | 0.00 | 64 | |
| 20260904165635 | 87 | 270 | 2.0 | 2.0 | 0.00 | 0.00 | 0.00 | 66 | |
| 20260904165621 | 87 | 270 | 4.0 | 4.0 | 0.00 | 0.00 | 0.00 | 66 | |
| 20260904164621 | 88 | 270 | 3.0 | 3.0 | 0.00 | 0.00 | 0.00 | 65 | |
| 20260904163635 | 88 | 293 | 6.0 | 6.0 | 0.00 | 0.00 | 0.00 | 63 | |
| 20260904163621 | 87 | 293 | 7.0 | 7.0 | 0.00 | 0.00 | 0.00 | 63 | |
| 20260904162633 | 88 | 270 | 4.0 | 4.0 | 0.00 | 0.00 | 0.00 | 64 | |
| 20260904162621 | 88 | 270 | 5.0 | 5.0 | 0.00 | 0.00 | 0.00 | 64 | |
| 20260904161621 | 87 | 270 | 6.0 | 6.0 | 0.00 | 0.00 | 0.00 | 65 | |
| 20260904160632 | 87 | 315 | 5.0 | 5.0 | 0.00 | 0.00 | 0.00 | 65 | |
| 20260904160621 | 87 | 293 | 10.0 | 10.0 | 0.00 | 0.00 | 0.00 | 65 | |
| 20260904155621 | 87 | 270 | 6.0 | 6.0 | 0.00 | 0.00 | 0.00 | 64 | |
| 20260904154621 | 86 | 293 | 7.0 | 7.0 | 0.00 | 0.00 | 0.00 | 65 | |
| 20260904153634 | 87 | 338 | 4.0 | 4.0 | 0.00 | 0.00 | 0.00 | 68 | |
| 20260904153621 | 87 | 338 | 3.0 | 3.0 | 0.00 | 0.00 | 0.00 | 68 | |
| 20260904152621 | 87 | 270 | 5.0 | 5.0 | 0.00 | 0.00 | 0.00 | 66 | |
| 20260904151632 | 86 | 248 | 7.0 | 7.0 | 0.00 | 0.00 | 0.00 | 68 | |
| 20260904151621 | 86 | 23 | 5.0 | 5.0 | 0.00 | 0.00 | 0.00 | 68 | |
| 20260904150621 | 85 | 270 | 6.0 | 6.0 | 0.00 | 0.00 | 0.00 | 69 | |
| 20260904145621 | 85 | 315 | 7.0 | 7.0 | 0.00 | 0.00 | 0.00 | 70 | |
| 20260904144621 | 84 | 225 | 10.0 | 10.0 | 0.00 | 0.00 | 0.00 | 72 | |
| 20260904143635 | 84 | 293 | 5.0 | 5.0 | 0.00 | 0.00 | 0.00 | 72 | |
| 20260904143621 | 84 | 293 | 7.0 | 7.0 | 0.00 | 0.00 | 0.00 | 72 | |
| 20260904142634 | 84 | 270 | 3.0 | 3.0 | 0.00 | 0.00 | 0.00 | 73 | |
| 20260904142621 | 84 | 270 | 4.0 | 4.0 | 0.00 | 0.00 | 0.00 | 72 | |
| 20260904141638 | 84 | 293 | 5.0 | 0.0 | 0.00 | 0.00 | 0.00 | 76 | |
| 20260904141622 | 84 | 293 | 5.0 | 5.0 | 0.00 | 0.00 | 0.00 | 76 | |
| 20260904140622 | 83 | 293 | 10.0 | 10.0 | 0.00 | 0.00 | 0.00 | 74 | |
| 20260904135622 | 83 | 270 | 6.0 | 6.0 | 0.00 | 0.00 | 0.00 | 76 | |
| 20260904134635 | 82 | 293 | 8.0 | 8.0 | 0.00 | 0.00 | 0.00 | 78 | |
| 20260904134622 | 82 | 338 | 5.0 | 5.0 | 0.00 | 0.00 | 0.00 | 78 | |
| 20260904133622 | 82 | 293 | 4.0 | 4.0 | 0.00 | 0.00 | 0.00 | 78 | |
| 20260904132622 | 80 | 0 | 5.0 | 5.0 | 0.00 | 0.00 | 0.00 | 80 | |
| 20260904131635 | 80 | 338 | 6.0 | 6.0 | 0.00 | 0.00 | 0.00 | 82 | |
| 20260904131622 | 80 | 338 | 5.0 | 5.0 | 0.00 | 0.00 | 0.00 | 82 | |
| 20260904130622 | 79 | 293 | 4.0 | 4.0 | 0.00 | 0.00 | 0.00 | 82 | |
| 20260904125622 | 78 | 270 | 7.0 | 7.0 | 0.00 | 0.00 | 0.00 | 83 | |
| 20260904124622 | 78 | 293 | 3.0 | 3.0 | 0.00 | 0.00 | 0.00 | 83 | |
| 20260904123636 | 77 | 270 | 6.0 | 6.0 | 0.00 | 0.00 | 0.00 | 84 | |
| 20260904123622 | 77 | 270 | 5.0 | 5.0 | 0.00 | 0.00 | 0.00 | 84 | |
| 20260904122622 | 77 | 270 | 3.0 | 3.0 | 0.00 | 0.00 | 0.00 | 84 | |
| 20260904121632 | 77 | 270 | 6.0 | 6.0 | 0.00 | 0.00 | 0.00 | 85 | |
| 20260904121621 | 77 | 270 | 7.0 | 7.0 | 0.00 | 0.00 | 0.00 | 85 | |
| 20260904120622 | 76 | 248 | 7.0 | 7.0 | 0.00 | 0.00 | 0.00 | 85 | |
| 20260904115621 | 75 | 248 | 3.0 | 3.0 | 0.00 | 0.00 | 0.00 | 86 | |
| 20260904114632 | 74 | 203 | 5.0 | 5.0 | 0.00 | 0.00 | 0.00 | 87 | |
| 20260904114621 | 74 | 203 | 7.0 | 7.0 | 0.00 | 0.00 | 0.00 | 88 | |
| 20260904113621 | 74 | 203 | 6.0 | 6.0 | 0.00 | 0.00 | 0.00 | 88 | |
| 20260904112635 | 74 | 225 | 5.0 | 5.0 | 0.00 | 0.00 | 0.00 | 89 | |
| 20260904112621 | 74 | 203 | 6.0 | 6.0 | 0.00 | 0.00 | 0.00 | 89 | |
| 20260904111621 | 73 | 203 | 5.0 | 5.0 | 0.00 | 0.00 | 0.00 | 90 | |
| 20260904110621 | 73 | 270 | 3.0 | 3.0 | 0.00 | 0.00 | 0.00 | 92 | |
| 20260904105632 | 73 | 248 | 5.0 | 5.0 | 0.00 | 0.00 | 0.00 | 92 | |
| 20260904105621 | 73 | 248 | 4.0 | 4.0 | 0.00 | 0.00 | 0.00 | 92 | |
| 20260904104621 | 73 | 225 | 4.0 | 4.0 | 0.00 | 0.00 | 0.00 | 92 | |
| 20260904103621 | 73 | 248 | 3.0 | 3.0 | 0.00 | 0.00 | 0.00 | 92 | |
| 20260904102621 | 73 | 225 | 3.0 | 3.0 | 0.00 | 0.00 | 0.00 | 92 | |
| 20260904101632 | 73 | 248 | 4.0 | 4.0 | 0.00 | 0.00 | 0.00 | 92 | |
| 20260904101621 | 73 | 248 | 3.0 | 3.0 | 0.00 | 0.00 | 0.00 | 92 | |
| 20260904100621 | 73 | 203 | 3.0 | 3.0 | 0.00 | 0.00 | 0.00 | 92 | |
| 20260904095633 | 74 | 248 | 4.0 | 4.0 | 0.00 | 0.00 | 0.00 | 92 | |
| 20260904095621 | 74 | 225 | 4.0 | 4.0 | 0.00 | 0.00 | 0.00 | 92 | |
| 20260904094632 | 74 | 180 | 3.0 | 3.0 | 0.00 | 0.00 | 0.00 | 92 | |
| 20260904094621 | 74 | 270 | 3.0 | 3.0 | 0.00 | 0.00 | 0.00 | 92 | |
| 20260904093636 | 74 | 248 | 3.0 | 3.0 | 0.00 | 0.00 | 0.00 | 92 | |
| 20260904093621 | 74 | 248 | 3.0 | 3.0 | 0.00 | 0.00 | 0.00 | 92 | |
| 20260904092621 | 74 | 270 | 4.0 | 4.0 | 0.00 | 0.00 | 0.00 | 92 | |
| 20260904091621 | 74 | 203 | 6.0 | 6.0 | 0.00 | 0.00 | 0.00 | 92 | |
| 20260904090633 | 75 | 203 | 4.0 | 4.0 | 0.00 | 0.00 | 0.00 | 92 | |
| 20260904090621 | 75 | 225 | 6.0 | 6.0 | 0.00 | 0.00 | 0.00 | 92 | |
| 20260904085621 | 75 | 248 | 4.0 | 4.0 | 0.00 | 0.00 | 0.00 | 92 | |
| 20260904084621 | 75 | 225 | 7.0 | 7.0 | 0.00 | 0.00 | 0.00 | 91 | |
| 20260904083633 | 75 | 203 | 7.0 | 7.0 | 0.00 | 0.00 | 0.00 | 91 | |
| 20260904083621 | 75 | 203 | 6.0 | 6.0 | 0.00 | 0.00 | 0.00 | 91 | |
| 20260904082621 | 75 | 203 | 7.0 | 7.0 | 0.00 | 0.00 | 0.00 | 91 | |
| 20260904081621 | 75 | 203 | 9.0 | 9.0 | 0.00 | 0.00 | 0.00 | 92 | |
| 20260904080622 | 75 | 225 | 9.0 | 9.0 | 0.00 | 0.00 | 0.00 | 93 | |
| 20260904075622 | 75 | 225 | 8.0 | 8.0 | 0.00 | 0.00 | 0.00 | 94 | |
| 20260904074634 | 75 | 225 | 8.0 | 8.0 | 0.00 | 0.00 | 0.00 | 94 | |
| 20260904074622 | 75 | 225 | 7.0 | 7.0 | 0.00 | 0.00 | 0.00 | 94 | |
| 20260904073622 | 74 | 203 | 7.0 | 7.0 | 0.00 | 0.00 | 0.00 | 94 | |
| 20260904072635 | 74 | 225 | 6.0 | 6.0 | 0.00 | 0.00 | 0.00 | 94 | |
| 20260904072622 | 74 | 203 | 5.0 | 5.0 | 0.00 | 0.00 | 0.00 | 94 | |
| 20260904071622 | 73 | 225 | 4.0 | 4.0 | 0.00 | 0.00 | 0.00 | 94 | |
| 20260904070622 | 73 | 225 | 2.0 | 2.0 | 0.00 | 0.00 | 0.00 | 94 | |
| 20260904065622 | 73 | 203 | 3.0 | 3.0 | 0.00 | 0.00 | 0.00 | 94 | |
| 20260904064622 | 73 | 203 | 2.0 | 2.0 | 0.00 | 0.00 | 0.00 | 94 | |
| 20260904063622 | 73 | 180 | 2.0 | 2.0 | 0.00 | 0.00 | 0.00 | 94 | |
| 20260904062622 | 73 | 158 | 1.0 | 1.0 | 0.00 | 0.00 | 0.00 | 94 | |
| 20260904061622 | 73 | 315 | 3.0 | 3.0 | 0.00 | 0.00 | 0.00 | 94 | |
| 20260904060622 | 73 | 135 | 3.0 | 3.0 | 0.00 | 0.00 | 0.00 | 94 | |
| 20260904055633 | 73 | 113 | 3.0 | 3.0 | 0.00 | 0.00 | 0.00 | 94 | |
| 20260904055621 | 73 | 135 | 4.0 | 4.0 | 0.00 | 0.00 | 0.00 | 94 | |
| 20260904054621 | 73 | 135 | 2.0 | 2.0 | 0.00 | 0.00 | 0.00 | 94 | |
| 20260904053621 | 73 | 180 | 3.0 | 3.0 | 0.00 | 0.00 | 0.00 | 94 | |
| 20260904052621 | 73 | 180 | 3.0 | 3.0 | 0.00 | 0.00 | 0.00 | 93 | |
| 20260904051621 | 73 | 45 | 0.0 | 0.0 | 0.00 | 0.00 | 0.00 | 93 | |
| 20260904050621 | 73 | 203 | 0.0 | 0.0 | 0.00 | 0.00 | 0.00 | 92 | |
| 20260904045621 | 73 | 158 | 4.0 | 4.0 | 0.00 | 0.00 | 0.00 | 92 | |
| 20260904044621 | 73 | 203 | 0.0 | 0.0 | 0.00 | 0.00 | 0.00 | 92 | |
| 20260904043621 | 74 | 23 | 3.0 | 3.0 | 0.00 | 0.00 | 0.00 | 92 | |
| 20260904042621 | 74 | 248 | 9.0 | 9.0 | 0.00 | 0.00 | 0.00 | 92 | |
| 20260904041634 | 75 | 315 | 8.0 | 8.0 | 0.00 | 0.00 | 0.00 | 91 | |
| 20260904041621 | 75 | 315 | 7.0 | 7.0 | 0.00 | 0.00 | 0.00 | 90 | |
| 20260904040621 | 77 | 270 | 4.0 | 4.0 | 0.00 | 0.00 | 0.00 | 86 | |
| 20260904035633 | 77 | 158 | 0.0 | 0.0 | 0.00 | 0.00 | 0.00 | 86 | |
| 20260904035621 | 77 | 135 | 0.0 | 0.0 | 0.00 | 0.00 | 0.00 | 86 | |
| 20260904034621 | 77 | 158 | 0.0 | 0.0 | 0.00 | 0.00 | 0.00 | 86 | |
| 20260904033621 | 77 | 158 | 2.0 | 2.0 | 0.00 | 0.00 | 0.00 | 86 | |
| 20260904032621 | 76 | 113 | 0.0 | 0.0 | 0.00 | 0.00 | 0.00 | 87 | |
| 20260904031621 | 76 | 203 | 2.0 | 2.0 | 0.00 | 0.00 | 0.00 | 87 | |
| 20260904030621 | 76 | 180 | 2.0 | 2.0 | 0.00 | 0.00 | 0.00 | 87 | |
| 20260904025621 | 76 | 203 | 3.0 | 3.0 | 0.00 | 0.00 | 0.00 | 87 |